sensor_id;sensor_type;location;lat;lon;timestamp;pressure;altitude;pressure_sealevel;temperature;humidity
44001;BME280;29660;42.892;24.710;2022-12-24T00:03:21;96618.13;;;0.26;100.00
44001;BME280;29660;42.892;24.710;2022-12-24T00:08:24;96771.44;;;1.17;100.00
44001;BME280;29660;42.892;24.710;2022-12-24T00:13:26;96852.78;;;1.64;100.00
44001;BME280;29660;42.892;24.710;2022-12-24T00:18:28;96571.22;;;-0.11;100.00
44001;BME280;29660;42.892;24.710;2022-12-24T00:23:30;96621.66;;;0.08;100.00
44001;BME280;29660;42.892;24.710;2022-12-24T00:28:32;96578.16;;;-0.29;100.00
44001;BME280;29660;42.892;24.710;2022-12-24T00:33:34;96578.47;;;-0.37;100.00
44001;BME280;29660;42.892;24.710;2022-12-24T00:38:37;96643.22;;;-0.02;100.00
44001;BME280;29660;42.892;24.710;2022-12-24T00:43:39;96811.56;;;0.89;100.00
44001;BME280;29660;42.892;24.710;2022-12-24T00:48:41;96721.19;;;0.38;100.00
44001;BME280;29660;42.892;24.710;2022-12-24T00:53:43;96798.31;;;0.84;100.00
44001;BME280;29660;42.892;24.710;2022-12-24T00:58:45;96836.19;;;1.11;100.00
44001;BME280;29660;42.892;24.710;2022-12-24T01:03:47;96664.97;;;-0.02;100.00
44001;BME280;29660;42.892;24.710;2022-12-24T01:08:50;96832.44;;;0.95;100.00
44001;BME280;29660;42.892;24.710;2022-12-24T01:13:54;96559.22;;;-0.78;100.00
44001;BME280;29660;42.892;24.710;2022-12-24T01:18:56;96769.13;;;0.57;100.00
44001;BME280;29660;42.892;24.710;2022-12-24T01:23:59;96470.47;;;-1.33;100.00
44001;BME280;29660;42.892;24.710;2022-12-24T01:29:01;96749.03;;;0.39;100.00
44001;BME280;29660;42.892;24.710;2022-12-24T01:34:03;96530.56;;;-1.03;100.00
44001;BME280;29660;42.892;24.710;2022-12-24T01:39:05;96448.09;;;-1.59;100.00
44001;BME280;29660;42.892;24.710;2022-12-24T01:44:23;96627.00;;;-0.46;100.00
44001;BME280;29660;42.892;24.710;2022-12-24T01:49:39;96603.59;;;-0.71;100.00
44001;BME280;29660;42.892;24.710;2022-12-24T01:55:05;96581.75;;;-0.77;100.00
44001;BME280;29660;42.892;24.710;2022-12-24T02:00:12;96640.09;;;-0.46;100.00
44001;BME280;29660;42.892;24.710;2022-12-24T02:05:19;96530.34;;;-1.13;100.00
44001;BME280;29660;42.892;24.710;2022-12-24T02:10:23;96571.59;;;-0.85;100.00
44001;BME280;29660;42.892;24.710;2022-12-24T02:15:28;96529.97;;;-1.16;100.00
44001;BME280;29660;42.892;24.710;2022-12-24T02:26:26;96805.50;;;0.53;100.00
44001;BME280;29660;42.892;24.710;2022-12-24T02:31:42;96799.78;;;0.44;100.00
44001;BME280;29660;42.892;24.710;2022-12-24T02:36:55;96800.25;;;0.41;100.00
44001;BME280;29660;42.892;24.710;2022-12-24T02:42:01;96794.75;;;0.31;100.00
44001;BME280;29660;42.892;24.710;2022-12-24T02:47:07;96694.69;;;-0.31;100.00
44001;BME280;29660;42.892;24.710;2022-12-24T02:52:33;96808.78;;;0.37;100.00
44001;BME280;29660;42.892;24.710;2022-12-24T03:08:13;96766.78;;;0.13;100.00
44001;BME280;29660;42.892;24.710;2022-12-24T03:13:18;96550.78;;;-1.21;100.00
44001;BME280;29660;42.892;24.710;2022-12-24T03:18:23;96716.84;;;-0.15;100.00
44001;BME280;29660;42.892;24.710;2022-12-24T03:23:26;96736.53;;;-0.13;100.00
44001;BME280;29660;42.892;24.710;2022-12-24T03:28:29;96762.91;;;0.04;100.00
44001;BME280;29660;42.892;24.710;2022-12-24T03:33:31;96762.00;;;0.10;100.00
44001;BME280;29660;42.892;24.710;2022-12-24T03:38:34;96550.88;;;-1.28;100.00
44001;BME280;29660;42.892;24.710;2022-12-24T03:43:36;96781.50;;;0.14;100.00
44001;BME280;29660;42.892;24.710;2022-12-24T03:48:38;96756.97;;;-0.03;100.00
44001;BME280;29660;42.892;24.710;2022-12-24T03:53:40;96737.22;;;-0.17;100.00
44001;BME280;29660;42.892;24.710;2022-12-24T03:58:42;96487.13;;;-1.76;100.00
44001;BME280;29660;42.892;24.710;2022-12-24T04:03:44;96770.78;;;0.04;100.00
44001;BME280;29660;42.892;24.710;2022-12-24T04:08:46;96512.66;;;-1.59;100.00
44001;BME280;29660;42.892;24.710;2022-12-24T04:13:48;96768.59;;;0.01;100.00
44001;BME280;29660;42.892;24.710;2022-12-24T04:18:51;96651.88;;;-0.67;100.00
44001;BME280;29660;42.892;24.710;2022-12-24T04:23:53;96767.34;;;0.15;100.00
44001;BME280;29660;42.892;24.710;2022-12-24T04:28:55;96512.94;;;-1.49;100.00
44001;BME280;29660;42.892;24.710;2022-12-24T04:33:57;96500.94;;;-1.68;100.00
44001;BME280;29660;42.892;24.710;2022-12-24T04:38:59;96832.72;;;0.29;100.00
44001;BME280;29660;42.892;24.710;2022-12-24T04:44:01;96580.56;;;-1.23;100.00
44001;BME280;29660;42.892;24.710;2022-12-24T04:49:03;96804.06;;;0.15;100.00
44001;BME280;29660;42.892;24.710;2022-12-24T04:54:05;96791.28;;;0.07;100.00
44001;BME280;29660;42.892;24.710;2022-12-24T04:59:07;96503.13;;;-1.84;100.00
44001;BME280;29660;42.892;24.710;2022-12-24T05:04:09;96601.97;;;-1.26;100.00
44001;BME280;29660;42.892;24.710;2022-12-24T05:09:30;96825.84;;;0.04;100.00
44001;BME280;29660;42.892;24.710;2022-12-24T05:14:32;96835.88;;;0.19;100.00
44001;BME280;29660;42.892;24.710;2022-12-24T05:19:34;96779.47;;;-0.26;100.00
44001;BME280;29660;42.892;24.710;2022-12-24T05:24:36;96564.47;;;-1.68;100.00
44001;BME280;29660;42.892;24.710;2022-12-24T05:29:57;96839.94;;;0.03;100.00
44001;BME280;29660;42.892;24.710;2022-12-24T05:34:59;96544.34;;;-1.86;100.00
44001;BME280;29660;42.892;24.710;2022-12-24T05:40:01;96797.94;;;-0.20;100.00
44001;BME280;29660;42.892;24.710;2022-12-24T05:45:03;96833.13;;;0.02;100.00
44001;BME280;29660;42.892;24.710;2022-12-24T05:50:06;96789.59;;;-0.29;100.00
44001;BME280;29660;42.892;24.710;2022-12-24T05:55:08;96663.13;;;-1.08;100.00
44001;BME280;29660;42.892;24.710;2022-12-24T06:00:10;96788.34;;;-0.27;100.00
44001;BME280;29660;42.892;24.710;2022-12-24T06:05:15;96792.28;;;-0.36;100.00
44001;BME280;29660;42.892;24.710;2022-12-24T06:10:18;96833.47;;;0.06;100.00
44001;BME280;29660;42.892;24.710;2022-12-24T06:15:20;96580.16;;;-1.68;100.00
44001;BME280;29660;42.892;24.710;2022-12-24T06:20:24;96535.94;;;-1.88;100.00
44001;BME280;29660;42.892;24.710;2022-12-24T06:25:26;96537.00;;;-1.77;100.00
44001;BME280;29660;42.892;24.710;2022-12-24T06:30:29;96782.09;;;-0.26;100.00
44001;BME280;29660;42.892;24.710;2022-12-24T06:35:31;96580.41;;;-1.39;100.00
44001;BME280;29660;42.892;24.710;2022-12-24T06:40:33;96802.28;;;0.16;100.00
44001;BME280;29660;42.892;24.710;2022-12-24T06:45:35;96588.34;;;-1.16;100.00
44001;BME280;29660;42.892;24.710;2022-12-24T06:50:38;96867.81;;;0.81;100.00
44001;BME280;29660;42.892;24.710;2022-12-24T06:55:40;96785.19;;;0.48;100.00
44001;BME280;29660;42.892;24.710;2022-12-24T07:00:42;96607.28;;;-0.48;100.00
44001;BME280;29660;42.892;24.710;2022-12-24T07:05:44;96801.84;;;1.01;100.00
44001;BME280;29660;42.892;24.710;2022-12-24T07:10:50;96695.88;;;0.55;100.00
44001;BME280;29660;42.892;24.710;2022-12-24T07:15:58;96863.63;;;1.96;100.00
44001;BME280;29660;42.892;24.710;2022-12-24T07:21:03;96813.91;;;1.94;100.00
44001;BME280;29660;42.892;24.710;2022-12-24T07:26:05;96881.44;;;2.51;100.00
44001;BME280;29660;42.892;24.710;2022-12-24T07:31:08;96858.97;;;2.77;100.00
44001;BME280;29660;42.892;24.710;2022-12-24T07:36:16;96813.88;;;2.74;100.00
44001;BME280;29660;42.892;24.710;2022-12-24T07:41:19;96615.81;;;1.72;100.00
44001;BME280;29660;42.892;24.710;2022-12-24T07:46:21;96861.13;;;3.36;100.00
44001;BME280;29660;42.892;24.710;2022-12-24T07:51:23;96677.44;;;2.32;100.00
44001;BME280;29660;42.892;24.710;2022-12-24T07:56:25;96859.84;;;3.60;100.00
44001;BME280;29660;42.892;24.710;2022-12-24T08:01:27;96873.34;;;3.64;100.00
44001;BME280;29660;42.892;24.710;2022-12-24T08:06:29;96621.00;;;2.22;100.00
44001;BME280;29660;42.892;24.710;2022-12-24T08:11:31;96580.16;;;2.37;100.00
44001;BME280;29660;42.892;24.710;2022-12-24T08:16:34;96598.97;;;2.67;100.00
44001;BME280;29660;42.892;24.710;2022-12-24T08:21:36;96861.22;;;4.71;100.00
44001;BME280;29660;42.892;24.710;2022-12-24T08:26:38;96587.31;;;3.39;100.00
44001;BME280;29660;42.892;24.710;2022-12-24T08:31:40;96868.09;;;5.47;99.46
44001;BME280;29660;42.892;24.710;2022-12-24T08:36:43;96775.19;;;5.38;98.98
44001;BME280;29660;42.892;24.710;2022-12-24T08:41:45;96784.34;;;5.88;98.29
44001;BME280;29660;42.892;24.710;2022-12-24T08:46:47;96789.22;;;6.37;95.90
44001;BME280;29660;42.892;24.710;2022-12-24T08:51:50;96704.47;;;6.27;94.06
44001;BME280;29660;42.892;24.710;2022-12-24T08:56:52;96668.94;;;6.58;91.38
44001;BME280;29660;42.892;24.710;2022-12-24T09:01:54;96807.78;;;8.18;90.79
44001;BME280;29660;42.892;24.710;2022-12-24T09:06:56;96563.19;;;7.17;88.05
44001;BME280;29660;42.892;24.710;2022-12-24T09:11:58;96751.69;;;8.88;88.22
44001;BME280;29660;42.892;24.710;2022-12-24T09:17:00;96507.69;;;7.54;84.63
44001;BME280;29660;42.892;24.710;2022-12-24T09:22:02;96737.59;;;9.35;84.12
44001;BME280;29660;42.892;24.710;2022-12-24T09:27:04;96523.03;;;8.16;83.98
44001;BME280;29660;42.892;24.710;2022-12-24T09:32:06;96768.09;;;10.04;81.95
44001;BME280;29660;42.892;24.710;2022-12-24T09:37:09;96573.84;;;9.24;82.63
44001;BME280;29660;42.892;24.710;2022-12-24T09:47:46;96716.94;;;10.40;78.02
44001;BME280;29660;42.892;24.710;2022-12-24T09:52:51;96717.38;;;10.47;78.23
44001;BME280;29660;42.892;24.710;2022-12-24T09:57:54;96767.63;;;10.87;79.30
44001;BME280;29660;42.892;24.710;2022-12-24T10:02:58;96369.47;;;8.42;78.08
44001;BME280;29660;42.892;24.710;2022-12-24T10:19:04;96697.28;;;10.96;76.32
44001;BME280;29660;42.892;24.710;2022-12-24T10:24:17;96777.38;;;11.51;75.72
44001;BME280;29660;42.892;24.710;2022-12-24T10:29:35;96741.16;;;11.31;75.50
44001;BME280;29660;42.892;24.710;2022-12-24T10:34:44;96801.19;;;11.62;75.93
44001;BME280;29660;42.892;24.710;2022-12-24T10:39:46;96770.34;;;11.42;77.17
44001;BME280;29660;42.892;24.710;2022-12-24T10:44:56;96703.03;;;10.90;78.13
44001;BME280;29660;42.892;24.710;2022-12-24T10:50:30;96759.19;;;11.26;78.35
44001;BME280;29660;42.892;24.710;2022-12-24T10:55:34;96548.81;;;9.90;78.62
44001;BME280;29660;42.892;24.710;2022-12-24T11:00:40;96589.13;;;10.02;80.91
44001;BME280;29660;42.892;24.710;2022-12-24T11:05:43;96726.31;;;10.84;82.26
44001;BME280;29660;42.892;24.710;2022-12-24T11:10:57;96688.47;;;10.68;86.07
44001;BME280;29660;42.892;24.710;2022-12-24T11:16:22;96595.19;;;10.22;84.20
44001;BME280;29660;42.892;24.710;2022-12-24T11:21:28;96733.56;;;11.25;83.57
44001;BME280;29660;42.892;24.710;2022-12-24T11:26:31;96773.22;;;11.45;85.44
44001;BME280;29660;42.892;24.710;2022-12-24T11:31:34;96549.88;;;10.22;87.58
44001;BME280;29660;42.892;24.710;2022-12-24T11:36:38;96721.22;;;11.29;89.18
44001;BME280;29660;42.892;24.710;2022-12-24T11:41:42;96586.53;;;10.30;90.05
44001;BME280;29660;42.892;24.710;2022-12-24T11:46:44;96531.09;;;9.99;90.53
44001;BME280;29660;42.892;24.710;2022-12-24T11:57:13;96657.38;;;10.91;90.32
44001;BME280;29660;42.892;24.710;2022-12-24T12:02:45;96747.88;;;11.43;92.83
44001;BME280;29660;42.892;24.710;2022-12-24T12:07:49;96583.97;;;10.52;92.53
44001;BME280;29660;42.892;24.710;2022-12-24T12:13:13;96758.97;;;11.64;93.96
44001;BME280;29660;42.892;24.710;2022-12-24T12:18:38;96769.81;;;11.81;94.64
44001;BME280;29660;42.892;24.710;2022-12-24T12:23:48;96468.44;;;9.88;95.36
44001;BME280;29660;42.892;24.710;2022-12-24T12:39:56;96746.06;;;11.79;93.53
44001;BME280;29660;42.892;24.710;2022-12-24T12:45:29;96756.56;;;11.90;94.39
44001;BME280;29660;42.892;24.710;2022-12-24T12:50:57;96739.94;;;11.79;94.44
44001;BME280;29660;42.892;24.710;2022-12-24T13:01:44;96774.56;;;11.98;95.96
44001;BME280;29660;42.892;24.710;2022-12-24T13:23:13;96693.25;;;11.13;95.69
44001;BME280;29660;42.892;24.710;2022-12-24T13:38:56;96761.53;;;11.27;96.15
44001;BME280;29660;42.892;24.710;2022-12-24T13:49:17;96804.69;;;11.48;96.24
44001;BME280;29660;42.892;24.710;2022-12-24T13:54:24;96788.84;;;11.38;95.80
44001;BME280;29660;42.892;24.710;2022-12-24T13:59:35;96585.72;;;9.97;95.66
44001;BME280;29660;42.892;24.710;2022-12-24T14:04:39;96601.94;;;10.00;96.54
44001;BME280;29660;42.892;24.710;2022-12-24T14:09:48;96825.22;;;11.34;99.12
44001;BME280;29660;42.892;24.710;2022-12-24T14:14:51;96755.56;;;10.75;99.00
44001;BME280;29660;42.892;24.710;2022-12-24T14:19:57;96614.66;;;9.71;100.00
44001;BME280;29660;42.892;24.710;2022-12-24T14:30:18;96855.78;;;10.95;99.98
44001;BME280;29660;42.892;24.710;2022-12-24T14:35:24;96627.56;;;9.45;78.88
44001;BME280;29660;42.892;24.710;2022-12-24T14:40:32;96865.72;;;11.09;78.41
44001;BME280;29660;42.892;24.710;2022-12-24T14:56:14;96844.13;;;10.91;78.70
44001;BME280;29660;42.892;24.710;2022-12-24T15:01:35;96650.78;;;9.58;80.64
44001;BME280;29660;42.892;24.710;2022-12-24T15:06:44;96816.88;;;10.62;77.81
44001;BME280;29660;42.892;24.710;2022-12-24T15:11:52;96620.66;;;9.25;82.08
44001;BME280;29660;42.892;24.710;2022-12-24T15:17:02;96708.78;;;9.80;86.01
44001;BME280;29660;42.892;24.710;2022-12-24T15:22:06;96912.69;;;10.91;88.26
44001;BME280;29660;42.892;24.710;2022-12-24T15:27:22;96859.31;;;10.39;89.74
44001;BME280;29660;42.892;24.710;2022-12-24T15:32:24;96884.03;;;10.45;91.91
44001;BME280;29660;42.892;24.710;2022-12-24T15:37:29;96912.00;;;10.47;93.58
44001;BME280;29660;42.892;24.710;2022-12-24T15:42:32;96699.72;;;9.00;93.89
44001;BME280;29660;42.892;24.710;2022-12-24T15:47:38;96923.94;;;10.31;96.27
44001;BME280;29660;42.892;24.710;2022-12-24T15:52:45;96670.41;;;8.52;97.56
44001;BME280;29660;42.892;24.710;2022-12-24T15:57:48;96669.75;;;8.42;99.09
44001;BME280;29660;42.892;24.710;2022-12-24T16:02:50;96928.03;;;9.99;100.00
44001;BME280;29660;42.892;24.710;2022-12-24T16:18:25;96883.72;;;9.61;100.00
44001;BME280;29660;42.892;24.710;2022-12-24T16:23:38;96965.28;;;10.04;100.00
44001;BME280;29660;42.892;24.710;2022-12-24T16:28:46;96681.91;;;8.14;100.00
44001;BME280;29660;42.892;24.710;2022-12-24T16:33:50;96910.63;;;9.59;100.00
44001;BME280;29660;42.892;24.710;2022-12-24T16:38:52;96700.50;;;8.14;100.00
44001;BME280;29660;42.892;24.710;2022-12-24T16:44:13;96743.34;;;8.41;100.00
44001;BME280;29660;42.892;24.710;2022-12-24T16:49:16;96739.13;;;8.35;100.00
44001;BME280;29660;42.892;24.710;2022-12-24T16:54:19;96746.50;;;8.43;100.00
44001;BME280;29660;42.892;24.710;2022-12-24T16:59:23;96983.53;;;9.92;100.00
44001;BME280;29660;42.892;24.710;2022-12-24T17:04:25;96742.97;;;8.19;100.00
44001;BME280;29660;42.892;24.710;2022-12-24T17:09:27;96994.16;;;9.68;100.00
44001;BME280;29660;42.892;24.710;2022-12-24T17:14:29;96943.09;;;9.32;100.00
44001;BME280;29660;42.892;24.710;2022-12-24T17:19:31;97009.56;;;9.71;100.00
44001;BME280;29660;42.892;24.710;2022-12-24T17:24:33;96846.50;;;8.68;100.00
44001;BME280;29660;42.892;24.710;2022-12-24T17:29:35;97011.38;;;9.76;100.00
44001;BME280;29660;42.892;24.710;2022-12-24T17:34:37;96856.41;;;8.63;100.00
44001;BME280;29660;42.892;24.710;2022-12-24T17:39:58;96762.72;;;8.02;100.00
44001;BME280;29660;42.892;24.710;2022-12-24T17:45:02;96932.06;;;9.15;100.00
44001;BME280;29660;42.892;24.710;2022-12-24T17:50:05;96761.97;;;7.97;100.00
44001;BME280;29660;42.892;24.710;2022-12-24T17:55:08;96781.31;;;8.02;100.00
44001;BME280;29660;42.892;24.710;2022-12-24T18:00:11;96758.00;;;7.89;100.00
44001;BME280;29660;42.892;24.710;2022-12-24T18:05:13;96830.06;;;8.22;100.00
44001;BME280;29660;42.892;24.710;2022-12-24T18:10:15;96964.63;;;9.01;100.00
44001;BME280;29660;42.892;24.710;2022-12-24T18:15:19;96987.97;;;9.09;100.00
44001;BME280;29660;42.892;24.710;2022-12-24T18:20:21;97001.06;;;8.96;100.00
44001;BME280;29660;42.892;24.710;2022-12-24T18:25:23;96991.66;;;8.74;100.00
44001;BME280;29660;42.892;24.710;2022-12-24T18:30:26;96591.66;;;6.21;100.00
44001;BME280;29660;42.892;24.710;2022-12-24T18:35:28;96708.34;;;6.75;100.00
44001;BME280;29660;42.892;24.710;2022-12-24T18:40:30;97006.38;;;8.51;100.00
44001;BME280;29660;42.892;24.710;2022-12-24T18:45:32;96818.25;;;7.39;100.00
44001;BME280;29660;42.892;24.710;2022-12-24T18:50:35;96778.53;;;7.08;100.00
44001;BME280;29660;42.892;24.710;2022-12-24T18:55:37;97066.28;;;8.88;100.00
44001;BME280;29660;42.892;24.710;2022-12-24T19:00:40;96828.09;;;7.28;100.00
44001;BME280;29660;42.892;24.710;2022-12-24T19:05:42;96852.22;;;7.27;100.00
44001;BME280;29660;42.892;24.710;2022-12-24T19:10:45;96835.25;;;7.18;100.00
44001;BME280;29660;42.892;24.710;2022-12-24T19:15:47;97071.19;;;8.66;100.00
44001;BME280;29660;42.892;24.710;2022-12-24T19:20:49;97055.84;;;8.47;100.00
44001;BME280;29660;42.892;24.710;2022-12-24T19:25:51;96828.41;;;6.96;100.00
44001;BME280;29660;42.892;24.710;2022-12-24T19:30:53;96829.47;;;6.85;100.00
44001;BME280;29660;42.892;24.710;2022-12-24T19:35:55;97051.09;;;8.24;100.00
44001;BME280;29660;42.892;24.710;2022-12-24T19:41:07;96927.53;;;7.31;100.00
44001;BME280;29660;42.892;24.710;2022-12-24T19:46:11;97071.34;;;7.99;100.00
44001;BME280;29660;42.892;24.710;2022-12-24T19:51:15;97104.25;;;8.14;100.00
44001;BME280;29660;42.892;24.710;2022-12-24T19:56:20;96850.13;;;6.52;100.00
44001;BME280;29660;42.892;24.710;2022-12-24T20:01:24;96854.13;;;6.55;100.00
44001;BME280;29660;42.892;24.710;2022-12-24T20:06:29;97093.66;;;7.98;100.00
44001;BME280;29660;42.892;24.710;2022-12-24T20:11:33;97043.75;;;7.49;100.00
44001;BME280;29660;42.892;24.710;2022-12-24T20:16:35;97083.03;;;7.62;100.00
44001;BME280;29660;42.892;24.710;2022-12-24T20:21:37;97076.13;;;7.51;100.00
44001;BME280;29660;42.892;24.710;2022-12-24T20:26:39;96855.88;;;6.03;100.00
44001;BME280;29660;42.892;24.710;2022-12-24T20:31:42;97090.44;;;7.50;100.00
44001;BME280;29660;42.892;24.710;2022-12-24T20:36:44;96852.63;;;5.86;100.00
44001;BME280;29660;42.892;24.710;2022-12-24T20:41:46;97043.16;;;6.96;100.00
44001;BME280;29660;42.892;24.710;2022-12-24T20:46:48;97120.94;;;7.27;100.00
44001;BME280;29660;42.892;24.710;2022-12-24T20:51:51;96969.50;;;6.10;100.00
44001;BME280;29660;42.892;24.710;2022-12-24T20:56:53;96830.91;;;5.16;100.00
44001;BME280;29660;42.892;24.710;2022-12-24T21:01:58;97097.09;;;6.59;100.00
44001;BME280;29660;42.892;24.710;2022-12-24T21:07:00;96900.13;;;5.13;100.00
44001;BME280;29660;42.892;24.710;2022-12-24T21:12:02;96827.66;;;4.66;100.00
44001;BME280;29660;42.892;24.710;2022-12-24T21:17:23;97102.22;;;6.24;100.00
44001;BME280;29660;42.892;24.710;2022-12-24T21:22:25;96953.38;;;5.27;100.00
44001;BME280;29660;42.892;24.710;2022-12-24T21:27:28;96743.53;;;3.84;100.00
44001;BME280;29660;42.892;24.710;2022-12-24T21:32:30;97094.56;;;5.90;100.00
44001;BME280;29660;42.892;24.710;2022-12-24T21:37:32;97164.16;;;6.18;100.00
44001;BME280;29660;42.892;24.710;2022-12-24T21:42:35;97174.16;;;6.10;100.00
44001;BME280;29660;42.892;24.710;2022-12-24T21:47:37;96884.78;;;4.18;100.00
44001;BME280;29660;42.892;24.710;2022-12-24T21:52:39;96710.00;;;3.03;100.00
44001;BME280;29660;42.892;24.710;2022-12-24T21:57:41;97176.78;;;6.05;100.00
44001;BME280;29660;42.892;24.710;2022-12-24T22:02:56;97069.13;;;5.20;100.00
44001;BME280;29660;42.892;24.710;2022-12-24T22:07:59;96919.13;;;4.24;100.00
44001;BME280;29660;42.892;24.710;2022-12-24T22:13:20;97124.88;;;5.45;100.00
44001;BME280;29660;42.892;24.710;2022-12-24T22:18:24;97120.50;;;5.29;100.00
44001;BME280;29660;42.892;24.710;2022-12-24T22:23:26;97152.91;;;5.46;100.00
44001;BME280;29660;42.892;24.710;2022-12-24T22:28:28;96988.94;;;4.33;100.00
44001;BME280;29660;42.892;24.710;2022-12-24T22:33:30;96957.75;;;4.08;100.00
44001;BME280;29660;42.892;24.710;2022-12-24T22:38:33;96969.00;;;3.98;100.00
44001;BME280;29660;42.892;24.710;2022-12-24T22:43:35;97098.88;;;4.61;100.00
44001;BME280;29660;42.892;24.710;2022-12-24T22:48:38;97047.94;;;4.22;100.00
44001;BME280;29660;42.892;24.710;2022-12-24T22:53:40;96936.38;;;3.27;100.00
44001;BME280;29660;42.892;24.710;2022-12-24T22:58:43;97206.53;;;4.92;100.00
44001;BME280;29660;42.892;24.710;2022-12-24T23:03:45;97011.91;;;3.72;100.00
44001;BME280;29660;42.892;24.710;2022-12-24T23:08:47;97154.56;;;4.59;100.00
44001;BME280;29660;42.892;24.710;2022-12-24T23:13:49;97166.94;;;4.76;100.00
44001;BME280;29660;42.892;24.710;2022-12-24T23:19:10;97196.75;;;4.93;100.00
44001;BME280;29660;42.892;24.710;2022-12-24T23:24:13;97206.34;;;4.99;100.00
44001;BME280;29660;42.892;24.710;2022-12-24T23:29:15;96991.00;;;3.48;100.00
44001;BME280;29660;42.892;24.710;2022-12-24T23:34:17;97195.91;;;4.49;100.00
44001;BME280;29660;42.892;24.710;2022-12-24T23:39:19;96954.66;;;3.00;100.00
44001;BME280;29660;42.892;24.710;2022-12-24T23:44:20;96946.13;;;2.92;100.00
44001;BME280;29660;42.892;24.710;2022-12-24T23:49:27;97044.03;;;3.35;100.00
44001;BME280;29660;42.892;24.710;2022-12-24T23:54:29;97228.38;;;4.49;100.00
44001;BME280;29660;42.892;24.710;2022-12-24T23:59:32;97198.47;;;4.27;100.00
